In Rescue
 
Open Full Screen Window  High Contrast Mode
Wind Gusting 00 knots
08
January 22, 2020 5:24 PM EST
Weather Information
Wind Direction
  220 °
Wind Speed
  08 kt (9 mph)
Wind Gust
  00 kt (0 mph)
Altimeter
30.03 in
Visibility
10 SM
Temperature
02° C
36° F
Dewpoint
-02° C
28° F
Humidity
75%
Sky Condition
Overcast @ 6,000 ft
Scattered @ 4,000 ft
Scattered @ 2,200 ft
VFR

METAR KSLH 222224Z AUTO 22008KT 10SM SCT022 SCT040 OVC060 02/M02 A3003 RMK AO2 T00241017

FAA Disclaimer: The data displayed is for advisory purposes only and is not to be used for flight planning or operations.